createdAt,value
2022-10-19T00:02:17.583Z,100.00
2022-10-19T00:05:19.054Z,100.00
2022-10-19T00:08:20.591Z,100.00
2022-10-19T00:11:23.689Z,100.00
2022-10-19T00:14:25.224Z,100.00
2022-10-19T00:17:26.628Z,100.00
2022-10-19T00:20:28.058Z,100.00
2022-10-19T00:23:29.538Z,100.00
2022-10-19T00:26:31.347Z,100.00
2022-10-19T00:29:32.821Z,100.00
2022-10-19T00:32:34.376Z,100.00
2022-10-19T00:35:40.230Z,100.00
2022-10-19T00:38:42.202Z,100.00
2022-10-19T00:41:45.996Z,100.00
2022-10-19T00:44:47.309Z,100.00
2022-10-19T00:47:49.993Z,100.00
2022-10-19T00:50:54.226Z,100.00
2022-10-19T00:53:56.609Z,100.00
2022-10-19T00:56:58.939Z,100.00
2022-10-19T01:00:04.372Z,100.00
2022-10-19T01:03:06.821Z,100.00
2022-10-19T01:06:08.710Z,100.00
2022-10-19T01:09:10.182Z,100.00
2022-10-19T01:12:26.613Z,100.00
2022-10-19T01:15:36.046Z,100.00
2022-10-19T01:18:50.645Z,100.00
2022-10-19T01:22:13.986Z,100.00
2022-10-19T01:25:40.681Z,100.00
2022-10-19T01:29:03.463Z,100.00
2022-10-19T01:32:23.706Z,100.00
2022-10-19T01:35:55.557Z,100.00
2022-10-19T01:39:11.342Z,100.00
2022-10-19T01:42:19.193Z,100.00
2022-10-19T01:45:47.285Z,100.00
2022-10-19T01:48:55.222Z,100.00
2022-10-19T01:52:00.607Z,100.00
2022-10-19T01:55:04.290Z,100.00
2022-10-19T01:58:09.614Z,100.00
2022-10-19T02:01:13.443Z,100.00
2022-10-19T02:04:18.950Z,100.00
2022-10-19T02:07:22.719Z,100.00
2022-10-19T02:10:25.594Z,100.00
2022-10-19T02:13:29.167Z,100.00
2022-10-19T02:16:39.391Z,100.00
2022-10-19T02:19:41.678Z,100.00
2022-10-19T02:22:43.485Z,100.00
2022-10-19T02:25:45.002Z,100.00
2022-10-19T02:28:47.038Z,100.00
2022-10-19T02:31:49.095Z,100.00
2022-10-19T02:34:50.483Z,100.00
2022-10-19T02:37:51.887Z,100.00
2022-10-19T02:41:07.122Z,100.00
2022-10-19T02:44:31.155Z,100.00
2022-10-19T02:47:38.685Z,100.00
2022-10-19T02:50:44.042Z,100.00
2022-10-19T02:53:45.459Z,100.00
2022-10-19T02:56:46.841Z,100.00
2022-10-19T02:59:48.589Z,100.00
2022-10-19T03:02:50.057Z,100.00
2022-10-19T03:05:52.145Z,100.00
2022-10-19T03:08:53.572Z,100.00
2022-10-19T03:11:58.012Z,100.00
2022-10-19T03:14:59.473Z,100.00
2022-10-19T03:18:00.868Z,100.00
2022-10-19T03:21:08.138Z,100.00
2022-10-19T03:24:09.614Z,100.00
2022-10-19T03:27:11.066Z,100.00
2022-10-19T03:30:12.575Z,100.00
2022-10-19T03:33:14.129Z,100.00
2022-10-19T03:36:23.329Z,100.00
2022-10-19T03:39:24.920Z,100.00
2022-10-19T03:42:26.312Z,100.00
2022-10-19T03:45:27.726Z,100.00
2022-10-19T03:48:29.164Z,100.00
2022-10-19T03:51:31.908Z,100.00
2022-10-19T03:54:33.298Z,100.00
2022-10-19T03:57:34.975Z,100.00
2022-10-19T04:00:36.766Z,100.00
2022-10-19T04:03:38.258Z,100.00
2022-10-19T04:06:42.040Z,100.00
2022-10-19T04:09:43.502Z,100.00
2022-10-19T04:12:44.918Z,100.00
2022-10-19T04:15:46.293Z,100.00
2022-10-19T04:18:47.753Z,100.00
2022-10-19T04:21:49.438Z,100.00
2022-10-19T04:24:50.849Z,100.00
2022-10-19T04:27:52.221Z,100.00
2022-10-19T04:30:53.717Z,100.00
2022-10-19T04:33:56.104Z,100.00
2022-10-19T04:36:59.409Z,100.00
2022-10-19T04:40:00.943Z,100.00
2022-10-19T04:43:02.658Z,100.00
2022-10-19T04:46:18.461Z,100.00
2022-10-19T04:49:20.426Z,100.00
2022-10-19T04:52:21.864Z,100.00
2022-10-19T04:55:23.296Z,100.00
2022-10-19T04:58:24.790Z,100.00
2022-10-19T05:01:28.300Z,100.00
2022-10-19T05:04:29.704Z,100.00
2022-10-19T05:07:31.325Z,100.00
2022-10-19T05:10:33.000Z,100.00
2022-10-19T05:13:35.180Z,100.00
2022-10-19T05:16:36.658Z,100.00
2022-10-19T05:19:38.071Z,100.00
2022-10-19T05:22:39.998Z,100.00
2022-10-19T05:25:41.384Z,100.00
2022-10-19T05:28:47.019Z,100.00
2022-10-19T05:31:48.543Z,100.00
2022-10-19T05:34:49.952Z,100.00
2022-10-19T05:37:55.178Z,100.00
2022-10-19T05:40:56.556Z,100.00
2022-10-19T05:44:00.335Z,100.00
2022-10-19T05:47:02.161Z,100.00
2022-10-19T05:50:03.874Z,100.00
2022-10-19T05:53:05.252Z,100.00
2022-10-19T05:56:08.873Z,100.00
2022-10-19T05:59:15.310Z,100.00
2022-10-19T06:02:16.696Z,100.00
2022-10-19T06:05:18.082Z,100.00
2022-10-19T06:08:21.042Z,100.00
2022-10-19T06:11:25.650Z,100.00
2022-10-19T06:14:27.042Z,100.00
2022-10-19T06:17:29.262Z,100.00
2022-10-19T06:20:30.845Z,100.00
2022-10-19T06:23:33.447Z,100.00
2022-10-19T06:26:35.704Z,100.00
2022-10-19T06:29:37.229Z,100.00
2022-10-19T06:32:38.728Z,100.00
2022-10-19T06:35:42.310Z,100.00
2022-10-19T06:38:44.646Z,100.00
2022-10-19T06:41:46.138Z,100.00
2022-10-19T06:44:53.748Z,100.00
2022-10-19T06:47:55.198Z,100.00
2022-10-19T06:50:58.220Z,100.00
2022-10-19T06:54:00.119Z,100.00
2022-10-19T06:57:01.539Z,100.00
2022-10-19T07:00:04.650Z,100.00
2022-10-19T07:03:06.058Z,100.00
2022-10-19T07:06:10.019Z,100.00
2022-10-19T07:09:11.397Z,100.00
2022-10-19T07:12:12.829Z,100.00
2022-10-19T07:15:14.334Z,100.00
2022-10-19T07:18:15.959Z,100.00
2022-10-19T07:21:18.421Z,100.00
2022-10-19T07:24:20.041Z,100.00
2022-10-19T07:27:21.641Z,100.00
2022-10-19T07:30:23.591Z,100.00
2022-10-19T07:33:25.206Z,100.00
2022-10-19T07:36:28.168Z,100.00
2022-10-19T07:39:29.578Z,100.00
2022-10-19T07:42:31.031Z,100.00
2022-10-19T07:45:32.965Z,100.00
2022-10-19T07:48:35.240Z,100.00
2022-10-19T07:51:38.223Z,100.00
2022-10-19T07:54:39.594Z,100.00
2022-10-19T07:57:43.638Z,100.00
2022-10-19T08:00:46.395Z,100.00
2022-10-19T08:07:10.165Z,100.00
2022-10-19T08:10:11.540Z,100.00
2022-10-19T08:13:12.919Z,100.00
2022-10-19T08:16:26.528Z,100.00
2022-10-19T08:19:27.928Z,100.00
2022-10-19T08:22:29.384Z,100.00
2022-10-19T08:25:30.816Z,100.00
2022-10-19T08:28:32.275Z,100.00
2022-10-19T08:31:33.983Z,100.00
2022-10-19T08:34:35.614Z,100.00
2022-10-19T08:37:44.768Z,100.00
2022-10-19T08:40:47.330Z,100.00
2022-10-19T08:44:10.383Z,100.00
2022-10-19T08:47:23.530Z,100.00
2022-10-19T08:50:36.284Z,100.00
2022-10-19T08:53:41.016Z,100.00
2022-10-19T08:56:51.790Z,100.00
2022-10-19T09:00:26.691Z,100.00
2022-10-19T09:03:59.060Z,100.00
2022-10-19T09:07:09.623Z,100.00
2022-10-19T09:10:14.618Z,100.00
2022-10-19T09:13:17.604Z,100.00
2022-10-19T09:16:19.947Z,100.00
2022-10-19T09:19:25.876Z,100.00
2022-10-19T09:22:34.964Z,100.00
2022-10-19T09:25:38.544Z,100.00
2022-10-19T09:28:47.234Z,100.00
2022-10-19T09:31:55.488Z,100.00
2022-10-19T09:35:02.206Z,100.00
2022-10-19T09:38:06.703Z,100.00
2022-10-19T09:41:21.237Z,100.00
2022-10-19T09:44:23.983Z,100.00
2022-10-19T09:47:33.458Z,100.00
2022-10-19T09:50:35.146Z,100.00
2022-10-19T09:53:36.666Z,100.00
2022-10-19T09:56:40.551Z,100.00
2022-10-19T09:59:42.333Z,100.00
2022-10-19T10:02:50.002Z,100.00
2022-10-19T10:05:52.449Z,100.00
2022-10-19T10:08:58.920Z,100.00
2022-10-19T10:12:00.605Z,100.00
2022-10-19T10:15:05.943Z,100.00
2022-10-19T10:18:13.039Z,100.00
2022-10-19T10:21:25.437Z,100.00
2022-10-19T10:24:30.447Z,100.00
2022-10-19T10:27:35.005Z,100.00
2022-10-19T10:30:37.445Z,100.00
2022-10-19T10:33:46.432Z,100.00
2022-10-19T10:36:53.800Z,100.00
2022-10-19T10:40:00.321Z,100.00
2022-10-19T10:43:09.103Z,100.00
2022-10-19T10:46:19.913Z,100.00
2022-10-19T10:49:25.535Z,100.00
2022-10-19T10:52:31.123Z,100.00
2022-10-19T10:55:34.128Z,100.00
2022-10-19T10:58:43.516Z,100.00
2022-10-19T11:01:59.658Z,100.00
2022-10-19T11:05:26.461Z,100.00
2022-10-19T11:08:35.915Z,100.00
2022-10-19T11:11:44.938Z,100.00
2022-10-19T11:14:51.109Z,100.00
2022-10-19T11:18:24.860Z,100.00
2022-10-19T11:21:36.180Z,100.00
2022-10-19T11:24:59.718Z,100.00
2022-10-19T11:28:19.384Z,100.00
2022-10-19T11:31:33.174Z,100.00
2022-10-19T11:34:56.155Z,100.00
2022-10-19T11:38:21.357Z,100.00
2022-10-19T11:41:47.540Z,100.00
2022-10-19T11:45:08.346Z,100.00
2022-10-19T11:48:15.777Z,100.00
2022-10-19T11:51:51.913Z,100.00
2022-10-19T11:55:30.361Z,100.00
2022-10-19T11:58:39.844Z,100.00
2022-10-19T12:01:53.435Z,100.00
2022-10-19T12:05:04.420Z,100.00
2022-10-19T12:08:27.795Z,100.00
2022-10-19T12:11:47.748Z,100.00
2022-10-19T12:14:54.449Z,100.00
2022-10-19T12:18:06.896Z,100.00
2022-10-19T12:21:30.397Z,100.00
2022-10-19T12:24:34.058Z,100.00
2022-10-19T12:27:40.008Z,100.00
2022-10-19T12:30:41.491Z,100.00
2022-10-19T12:33:51.829Z,100.00
2022-10-19T12:37:18.085Z,100.00
2022-10-19T12:40:28.057Z,100.00
2022-10-19T12:43:51.450Z,100.00
2022-10-19T12:47:01.196Z,100.00
2022-10-19T12:50:02.778Z,100.00
2022-10-19T12:53:04.225Z,100.00
2022-10-19T12:56:10.013Z,100.00
2022-10-19T12:59:23.988Z,100.00
2022-10-19T13:02:29.733Z,100.00
2022-10-19T13:05:33.415Z,100.00
2022-10-19T13:08:53.167Z,100.00
2022-10-19T13:12:14.784Z,100.00
2022-10-19T13:15:37.359Z,100.00
2022-10-19T13:19:14.176Z,100.00
2022-10-19T13:22:28.520Z,99.57
2022-10-19T13:25:31.877Z,100.00
2022-10-19T13:28:37.732Z,100.00
2022-10-19T13:31:39.488Z,100.00
2022-10-19T13:34:41.142Z,100.00
2022-10-19T13:37:43.635Z,100.00
2022-10-19T13:40:51.224Z,100.00
2022-10-19T13:44:15.208Z,100.00
2022-10-19T13:47:32.533Z,100.00
2022-10-19T13:50:42.990Z,100.00
2022-10-19T13:54:07.490Z,98.47
2022-10-19T13:57:20.630Z,98.99
2022-10-19T14:00:24.604Z,98.10
2022-10-19T14:03:38.199Z,98.05
2022-10-19T14:06:50.502Z,99.46
2022-10-19T14:10:14.586Z,99.45
2022-10-19T14:13:16.087Z,98.19
2022-10-19T14:16:20.900Z,97.45
2022-10-19T14:19:47.131Z,96.15
2022-10-19T14:22:48.522Z,96.32
2022-10-19T14:26:03.724Z,96.64
2022-10-19T14:29:05.768Z,97.20
2022-10-19T14:32:09.449Z,97.55
2022-10-19T14:35:28.411Z,98.68
2022-10-19T14:38:35.130Z,98.17
2022-10-19T14:41:37.064Z,98.62
2022-10-19T14:44:43.906Z,97.60
2022-10-19T14:47:59.305Z,99.43
2022-10-19T14:51:01.165Z,99.44
2022-10-19T14:54:11.191Z,99.91
2022-10-19T14:57:17.457Z,99.69
2022-10-19T15:00:21.590Z,100.00
2022-10-19T15:03:27.431Z,99.25
2022-10-19T15:06:35.395Z,100.00
2022-10-19T15:09:48.247Z,100.00
2022-10-19T15:12:52.325Z,100.00
2022-10-19T15:15:54.748Z,100.00
2022-10-19T15:18:56.343Z,100.00
2022-10-19T15:22:21.053Z,100.00
2022-10-19T15:25:32.652Z,99.60
2022-10-19T15:28:40.703Z,99.88
2022-10-19T15:31:43.186Z,99.60
2022-10-19T15:34:46.024Z,99.50
2022-10-19T15:37:50.269Z,99.93
2022-10-19T15:40:59.893Z,100.00
2022-10-19T15:44:08.268Z,100.00
2022-10-19T15:47:15.759Z,100.00
2022-10-19T15:50:36.405Z,100.00
2022-10-19T15:53:37.809Z,100.00
2022-10-19T15:56:40.059Z,100.00
2022-10-19T15:59:41.504Z,100.00
2022-10-19T16:02:43.316Z,100.00
2022-10-19T16:05:44.985Z,100.00
2022-10-19T16:08:46.868Z,100.00
2022-10-19T16:11:48.587Z,100.00
2022-10-19T16:14:50.505Z,100.00
2022-10-19T16:18:00.255Z,100.00
2022-10-19T16:21:01.664Z,100.00
2022-10-19T16:24:03.558Z,100.00
2022-10-19T16:27:05.910Z,100.00
2022-10-19T16:30:08.129Z,100.00
2022-10-19T16:33:09.544Z,100.00
2022-10-19T16:36:11.302Z,100.00
2022-10-19T16:39:12.832Z,100.00
2022-10-19T16:42:14.236Z,100.00
2022-10-19T16:45:15.757Z,100.00
2022-10-19T16:48:19.824Z,100.00
2022-10-19T16:51:36.174Z,100.00
2022-10-19T16:54:37.554Z,100.00
2022-10-19T16:57:38.987Z,100.00
2022-10-19T17:00:40.749Z,100.00
2022-10-19T17:03:43.806Z,100.00
2022-10-19T17:06:45.221Z,100.00
2022-10-19T17:09:49.794Z,100.00
2022-10-19T17:12:53.856Z,100.00
2022-10-19T17:15:55.259Z,100.00
2022-10-19T17:18:58.224Z,100.00
2022-10-19T17:22:01.714Z,100.00
2022-10-19T17:25:03.235Z,100.00
2022-10-19T17:28:04.825Z,100.00
2022-10-19T17:31:09.118Z,100.00
2022-10-19T17:34:10.590Z,100.00
2022-10-19T17:37:11.979Z,100.00
2022-10-19T17:40:13.398Z,100.00
2022-10-19T17:43:14.835Z,100.00
2022-10-19T17:46:18.274Z,100.00
2022-10-19T17:49:19.676Z,100.00
2022-10-19T17:52:21.229Z,100.00
2022-10-19T17:58:32.043Z,100.00
2022-10-19T18:01:34.083Z,100.00
2022-10-19T18:07:38.228Z,100.00
2022-10-19T18:10:39.921Z,100.00
2022-10-19T18:13:42.007Z,100.00
2022-10-19T18:16:46.203Z,100.00
2022-10-19T18:19:47.775Z,100.00
2022-10-19T18:22:49.207Z,100.00
2022-10-19T18:25:54.364Z,100.00
2022-10-19T18:28:57.672Z,100.00
2022-10-19T18:31:59.127Z,100.00
2022-10-19T18:35:00.566Z,100.00
2022-10-19T18:38:02.789Z,100.00
2022-10-19T18:41:07.264Z,100.00
2022-10-19T18:44:12.093Z,100.00
2022-10-19T18:47:13.529Z,100.00
2022-10-19T18:50:17.337Z,100.00
2022-10-19T18:53:19.117Z,100.00
2022-10-19T18:56:22.338Z,100.00
2022-10-19T18:59:23.920Z,100.00
2022-10-19T19:02:35.250Z,100.00
2022-10-19T19:05:43.875Z,100.00
2022-10-19T19:08:45.657Z,100.00
2022-10-19T19:11:47.212Z,100.00
2022-10-19T19:14:48.673Z,100.00
2022-10-19T19:17:53.859Z,100.00
2022-10-19T19:20:55.293Z,100.00
2022-10-19T19:23:59.124Z,100.00
2022-10-19T19:27:00.572Z,100.00
2022-10-19T19:30:04.601Z,100.00
2022-10-19T19:33:06.008Z,100.00
2022-10-19T19:36:08.725Z,100.00
2022-10-19T19:39:10.116Z,100.00
2022-10-19T19:42:11.677Z,100.00
2022-10-19T19:45:13.094Z,100.00
2022-10-19T19:48:14.620Z,100.00
2022-10-19T19:51:19.128Z,100.00
2022-10-19T19:54:22.812Z,100.00
2022-10-19T19:57:24.454Z,100.00
2022-10-19T20:00:25.856Z,100.00
2022-10-19T20:03:27.245Z,100.00
2022-10-19T20:06:29.234Z,100.00
2022-10-19T20:09:30.894Z,100.00
2022-10-19T20:12:32.292Z,100.00
2022-10-19T20:15:34.157Z,100.00
2022-10-19T20:18:35.585Z,100.00
2022-10-19T20:21:37.437Z,100.00
2022-10-19T20:24:38.827Z,100.00
2022-10-19T20:27:40.242Z,100.00
2022-10-19T20:30:44.362Z,100.00
2022-10-19T20:33:47.439Z,100.00
2022-10-19T20:36:48.932Z,100.00
2022-10-19T20:39:50.385Z,100.00
2022-10-19T20:42:51.846Z,100.00
2022-10-19T20:45:53.228Z,100.00
2022-10-19T20:49:00.698Z,100.00
2022-10-19T20:52:02.522Z,100.00
2022-10-19T20:55:05.048Z,100.00
2022-10-19T20:58:06.430Z,100.00
2022-10-19T21:01:16.141Z,100.00
2022-10-19T21:04:18.138Z,100.00
2022-10-19T21:07:19.510Z,100.00
2022-10-19T21:10:20.908Z,100.00
2022-10-19T21:13:22.284Z,100.00
2022-10-19T21:16:27.417Z,100.00
2022-10-19T21:19:29.572Z,100.00
2022-10-19T21:22:34.447Z,100.00
2022-10-19T21:25:38.560Z,100.00
2022-10-19T21:28:41.678Z,100.00
2022-10-19T21:31:47.963Z,100.00
2022-10-19T21:34:50.502Z,100.00
2022-10-19T21:37:51.931Z,100.00
2022-10-19T21:40:57.990Z,100.00
2022-10-19T21:43:59.905Z,100.00
2022-10-19T21:47:01.387Z,100.00
2022-10-19T21:50:02.940Z,100.00
2022-10-19T21:53:04.363Z,100.00
2022-10-19T21:56:06.050Z,100.00
2022-10-19T21:59:07.639Z,100.00
2022-10-19T22:02:09.070Z,100.00
2022-10-19T22:05:10.513Z,100.00
2022-10-19T22:08:11.918Z,100.00
2022-10-19T22:11:14.328Z,100.00
2022-10-19T22:14:16.350Z,100.00
2022-10-19T22:17:17.763Z,100.00
2022-10-19T22:20:19.246Z,100.00
2022-10-19T22:23:20.682Z,100.00
2022-10-19T22:26:28.315Z,100.00
2022-10-19T22:29:29.718Z,100.00
2022-10-19T22:32:31.192Z,100.00
2022-10-19T22:35:32.706Z,100.00
2022-10-19T22:38:34.718Z,100.00
2022-10-19T22:41:36.119Z,100.00
2022-10-19T22:44:37.581Z,100.00
2022-10-19T22:47:38.983Z,100.00
2022-10-19T22:50:40.416Z,100.00
2022-10-19T22:53:41.953Z,100.00
2022-10-19T22:56:43.591Z,100.00
2022-10-19T22:59:44.974Z,100.00
2022-10-19T23:02:47.406Z,100.00
2022-10-19T23:05:48.778Z,100.00
2022-10-19T23:08:50.315Z,100.00
2022-10-19T23:11:51.809Z,100.00
2022-10-19T23:14:53.195Z,100.00
2022-10-19T23:17:54.910Z,100.00
2022-10-19T23:20:58.184Z,100.00
2022-10-19T23:23:59.601Z,100.00
2022-10-19T23:27:01.095Z,100.00
2022-10-19T23:30:03.951Z,100.00
2022-10-19T23:33:05.423Z,100.00
2022-10-19T23:36:10.039Z,100.00
2022-10-19T23:39:11.499Z,100.00
2022-10-19T23:42:12.879Z,100.00
2022-10-19T23:45:15.179Z,100.00
2022-10-19T23:48:16.631Z,100.00
2022-10-19T23:51:20.727Z,100.00
2022-10-19T23:54:22.485Z,100.00
2022-10-19T23:57:23.901Z,100.00
